Tropical Cyclones
[Index]
Main Index Home Page Stock Weather Photos Extreme Storms Discussion Storm News and Storm Chasing Reports Tropical Cyclones / Hurricanes / Typhoons Weather Data and Links Wild Fires / Bushfires Weather Observation Techniques Weather Picture Catalogue Tornado Pictures and Reports Stock Video Footage and DVDs for sale
Season 1969-1970 Tropical Cyclone LOUISE Track Map
Season 1969-1970 Summaries: [BoM-AU] [JTWC-AU] [JTWC-SIO] [JTWC-SPAC] [JTWC-SH]
<<- Previous TC | JTWC 1969-1970 Season | Next TC ->>

click for intensity scale information  Lat/long Grid: Show Hide

 Date Labels: Show Hide

Joint Typhoon Warning Centre Cyclone Data

Name: LOUISE
Number: 739 / 7026

22 Mar 1970 00:00 UTC to 01 Apr 1970 00:00 UTC

    date/time    lat    long     hPa   cat  kts
1970-03-22 00   12.5    70.0                              
1970-03-22 06   12.5    69.9                              
1970-03-22 12   12.6    69.8                              
1970-03-22 18   12.7    69.6                              
1970-03-23 00   12.8    69.4                              
1970-03-23 06   13.0    69.2                              
1970-03-23 12   13.2    69.0                              
1970-03-23 18   13.3    68.9                              
1970-03-24 00   13.5    68.9                              
1970-03-24 06   13.8    68.7                              
1970-03-24 12   14.1    68.5                              
1970-03-24 18   14.5    68.4                              
1970-03-25 00   14.9    68.3                              
1970-03-25 06   15.5    68.2                              
1970-03-25 12   16.3    68.0                              
1970-03-25 18   17.2    67.8                              
1970-03-26 00   18.0    67.6                              
1970-03-26 06   18.6    67.4                              
1970-03-26 12   18.9    67.2                              
1970-03-26 18   19.0    66.8                              
1970-03-27 00   19.0    66.2                              
1970-03-27 06   18.8    65.6                              
1970-03-27 12   18.7    64.9                              
1970-03-27 18   18.6    64.0                              
1970-03-28 00   18.6    63.1                              
1970-03-28 06   18.6    62.2                              
1970-03-28 12   18.6    61.2                              
1970-03-28 18   18.6    60.3                              
1970-03-29 00   18.8    59.5                              
1970-03-29 06   19.2    59.1                              
1970-03-29 12   19.9    59.0                              
1970-03-29 18   20.6    58.9                              
1970-03-30 00   21.5    58.9                              
1970-03-30 06   23.1    59.4                              
1970-03-30 12   24.9    60.1                              
1970-03-30 18   26.1    60.8                              
1970-03-31 00   27.5    61.8                              
1970-03-31 06   29.5    63.3                              
1970-03-31 12   31.6    65.2                              
1970-03-31 18   33.6    67.1                              
1970-04-01 00   35.5    69.2                              
Winds are 1-min average.

Tropical cyclone tracks developed by Michael Bath using data from the Joint Typhoon Warning Centre Best Tracks and Google Maps.


[Australian Severe Weather index] [Copyright Notice] [Email Contacts] [Search This Site] [Privacy Policy]
Document: tropical_cyclone_louise.htm Updated: 18 September 2016